createdAt,value
2023-04-12T01:00:00.904Z,96290.28
2023-04-12T01:11:25.400Z,96269.91
2023-04-12T01:16:26.282Z,96256.72
2023-04-12T01:21:37.099Z,96249.25
2023-04-12T01:26:44.780Z,96240.16
2023-04-12T01:31:38.637Z,96230.59
2023-04-12T01:36:32.471Z,96222.50
2023-04-12T01:41:24.532Z,96208.59
2023-04-12T01:46:19.987Z,96203.31
2023-04-12T01:51:28.321Z,96182.06
2023-04-12T01:56:22.703Z,96182.28
2023-04-12T02:01:17.835Z,96179.56
2023-04-12T02:06:10.830Z,96170.91
2023-04-12T02:11:09.390Z,96164.28
2023-04-12T02:16:02.348Z,96153.75
2023-04-12T02:20:54.380Z,96145.94
2023-04-12T02:25:46.434Z,96122.53
2023-04-12T02:30:38.343Z,96088.91
2023-04-12T02:35:31.896Z,96082.88
2023-04-12T02:40:23.941Z,96062.13
2023-04-12T02:45:15.815Z,96056.13
2023-04-12T02:55:15.436Z,96044.09
2023-04-12T03:00:12.069Z,96036.59
2023-04-12T03:05:05.071Z,96030.81
2023-04-12T03:09:56.926Z,96029.22
2023-04-12T03:14:48.739Z,96019.47
2023-04-12T03:19:40.461Z,96007.91
2023-04-12T03:24:37.135Z,96011.31
2023-04-12T03:29:29.036Z,95995.28
2023-04-12T03:34:20.690Z,95997.13
2023-04-12T03:39:12.354Z,95993.50
2023-04-12T03:44:04.232Z,95993.50
2023-04-12T03:48:56.669Z,95986.13
2023-04-12T03:53:48.434Z,95982.47
2023-04-12T03:58:40.282Z,95971.72
2023-04-12T04:03:35.631Z,95971.03
2023-04-12T04:08:28.950Z,95964.69
2023-04-12T04:13:20.873Z,95954.69
2023-04-12T04:18:12.537Z,95947.31
2023-04-12T04:23:04.928Z,95929.28
2023-04-12T04:27:58.083Z,95914.66
2023-04-12T04:32:50.105Z,95903.63
2023-04-12T04:37:42.436Z,95902.84
2023-04-12T04:42:34.271Z,95896.81
2023-04-12T04:47:26.033Z,95885.38
2023-04-12T04:52:18.359Z,95889.25
2023-04-12T04:57:12.146Z,95891.31
2023-04-12T05:02:03.963Z,95888.09
2023-04-12T05:06:55.841Z,95872.78
2023-04-12T05:11:47.573Z,95872.00
2023-04-12T05:16:39.263Z,95859.97
2023-04-12T05:21:31.109Z,95862.69
2023-04-12T05:26:24.414Z,95857.47
2023-04-12T05:31:16.250Z,95850.78
2023-04-12T05:36:09.514Z,95854.75
2023-04-12T05:41:04.968Z,95842.50
2023-04-12T05:45:57.015Z,95854.88
2023-04-12T05:50:54.037Z,95851.09
2023-04-12T05:55:46.501Z,95838.16
2023-04-12T06:11:06.273Z,95835.41
2023-04-12T06:16:02.018Z,95830.84
2023-04-12T06:20:54.476Z,95814.28
2023-04-12T06:25:50.233Z,95810.75
2023-04-12T06:30:42.262Z,95799.78
2023-04-12T06:35:34.465Z,95798.06
2023-04-12T06:40:27.514Z,95776.69
2023-04-12T06:45:19.556Z,95767.41
2023-04-12T06:50:12.498Z,95757.13
2023-04-12T06:55:06.396Z,95757.59
2023-04-12T06:59:58.109Z,95744.66
2023-04-12T07:04:58.322Z,95737.22
2023-04-12T07:09:50.986Z,95737.63
2023-04-12T07:14:50.666Z,95733.19
2023-04-12T07:24:51.672Z,95732.50
2023-04-12T07:29:45.947Z,95733.84
2023-04-12T07:34:40.112Z,95734.97
2023-04-12T07:39:33.349Z,95725.63
2023-04-12T07:44:26.707Z,95711.94
2023-04-12T07:54:30.098Z,95708.53
2023-04-12T08:04:42.117Z,95706.69
2023-04-12T08:09:36.032Z,95718.84
2023-04-12T08:14:28.071Z,95699.94
2023-04-12T08:19:22.950Z,95694.31
2023-04-12T08:24:19.246Z,95704.13
2023-04-12T08:29:21.205Z,95696.00
2023-04-12T08:34:21.319Z,95679.69
2023-04-12T08:39:13.232Z,95672.88
2023-04-12T08:44:05.899Z,95675.97
2023-04-12T08:48:59.091Z,95667.16
2023-04-12T08:53:52.826Z,95667.19
2023-04-12T09:04:01.973Z,95650.47
2023-04-12T09:14:03.284Z,95630.09
2023-04-12T09:19:00.302Z,95636.00
2023-04-12T09:24:14.802Z,95633.78
2023-04-12T09:29:29.644Z,95631.81
2023-04-12T09:34:22.126Z,95628.41
2023-04-12T09:39:15.259Z,95625.53
2023-04-12T09:44:07.672Z,95621.78
2023-04-12T09:49:03.234Z,95627.97
2023-04-12T09:54:05.993Z,95616.13
2023-04-12T09:59:05.364Z,95614.75
2023-04-12T10:09:10.146Z,95620.06
2023-04-12T10:24:31.727Z,95633.34
2023-04-12T10:29:46.931Z,95636.75
2023-04-12T10:34:47.676Z,95633.72
2023-04-12T10:39:48.872Z,95628.50
2023-04-12T10:55:34.132Z,95653.91
2023-04-12T11:16:29.477Z,95646.75
2023-04-12T11:21:24.549Z,95654.22
2023-04-12T11:26:24.489Z,95647.03
2023-04-12T11:41:34.959Z,95638.84
2023-04-12T11:46:33.945Z,95662.94
2023-04-12T11:51:32.247Z,95650.03
2023-04-12T11:56:25.738Z,95638.94
2023-04-12T12:01:21.062Z,95637.19
2023-04-12T12:11:22.396Z,95625.47
2023-04-12T12:16:25.003Z,95609.16
2023-04-12T12:21:20.278Z,95615.06
2023-04-12T12:26:32.465Z,95619.25
2023-04-12T12:31:29.057Z,95613.16
2023-04-12T12:36:21.231Z,95605.78
2023-04-12T12:41:25.017Z,95595.88
2023-04-12T12:46:37.273Z,95604.56
2023-04-12T13:12:06.073Z,95604.19
2023-04-12T13:16:58.773Z,95590.50
2023-04-12T13:21:59.478Z,95575.56
2023-04-12T13:47:21.424Z,95539.50
2023-04-12T13:57:19.895Z,95513.84
2023-04-12T14:02:12.789Z,95529.94
2023-04-12T14:32:51.611Z,95487.16
2023-04-12T14:42:50.996Z,95481.00
2023-04-12T14:53:17.811Z,95485.25
2023-04-12T15:13:33.958Z,95495.59
2023-04-12T15:23:32.625Z,95498.34
2023-04-12T15:28:25.041Z,95502.59
2023-04-12T15:33:17.682Z,95509.41
2023-04-12T15:43:17.083Z,95499.59
2023-04-12T15:48:12.955Z,95508.81
2023-04-12T15:53:09.002Z,95508.91
2023-04-12T15:58:01.425Z,95512.84
2023-04-12T16:02:55.912Z,95503.16
2023-04-12T16:07:52.353Z,95508.22
2023-04-12T16:12:46.085Z,95511.38
2023-04-12T16:17:41.911Z,95526.66
2023-04-12T16:22:36.467Z,95510.34
2023-04-12T16:27:29.407Z,95505.13
2023-04-12T16:32:21.155Z,95504.84
2023-04-12T16:37:13.194Z,95508.75
2023-04-12T16:42:06.115Z,95503.00
2023-04-12T16:46:58.798Z,95502.47
2023-04-12T16:51:53.510Z,95516.66
2023-04-12T17:02:01.880Z,95493.19
2023-04-12T17:06:58.038Z,95495.53
2023-04-12T17:11:52.428Z,95487.63
2023-04-12T17:16:44.220Z,95473.19
2023-04-12T17:21:42.248Z,95479.22
2023-04-12T17:26:34.446Z,95477.41
2023-04-12T17:31:27.904Z,95474.78
2023-04-12T17:36:20.541Z,95479.22
2023-04-12T17:41:13.121Z,95478.69
2023-04-12T17:46:08.990Z,95482.38
2023-04-12T17:51:05.497Z,95492.34
2023-04-12T17:55:57.559Z,95479.75
2023-04-12T18:00:57.333Z,95482.34
2023-04-12T18:05:49.106Z,95475.47
2023-04-12T18:10:42.920Z,95481.47
2023-04-12T18:20:40.472Z,95490.66
2023-04-12T18:25:32.507Z,95487.28
2023-04-12T18:30:24.245Z,95488.81
2023-04-12T18:35:16.322Z,95496.44
2023-04-12T18:40:09.548Z,95508.47
2023-04-12T18:45:08.424Z,95536.06
2023-04-12T18:50:03.412Z,95558.41
2023-04-12T19:00:01.997Z,95575.31
2023-04-12T19:04:54.071Z,95587.00
2023-04-12T19:09:48.157Z,95600.66
2023-04-12T19:19:46.521Z,95634.50
2023-04-12T19:24:38.230Z,95644.03
2023-04-12T19:29:30.154Z,95634.69
2023-04-12T19:39:52.245Z,95623.16
2023-04-12T19:44:43.997Z,95630.91
2023-04-12T19:49:38.176Z,95649.22
2023-04-12T19:54:30.323Z,95649.41
2023-04-12T19:59:23.902Z,95661.59
2023-04-12T20:09:27.057Z,95691.94
2023-04-12T20:14:20.986Z,95691.56
2023-04-12T20:19:26.349Z,95676.03
2023-04-12T20:24:18.246Z,95689.16
2023-04-12T20:29:12.667Z,95670.16
2023-04-12T20:34:04.388Z,95678.41
2023-04-12T20:49:07.730Z,95647.91
2023-04-12T20:54:04.588Z,95654.72
2023-04-12T20:58:56.781Z,95663.59
2023-04-12T21:03:49.397Z,95671.81
2023-04-12T21:08:43.242Z,95673.41
2023-04-12T21:13:35.563Z,95665.97
2023-04-12T21:18:28.330Z,95673.34
2023-04-12T21:23:20.530Z,95674.38
2023-04-12T21:28:12.459Z,95667.41
2023-04-12T21:33:04.348Z,95656.69
2023-04-12T21:37:56.658Z,95683.94
2023-04-12T21:42:50.202Z,95722.75
2023-04-12T21:47:43.027Z,95720.44
2023-04-12T21:52:35.385Z,95744.19
2023-04-12T21:57:31.675Z,95752.44
2023-04-12T22:02:33.931Z,95767.69
2023-04-12T22:07:27.222Z,95732.41
2023-04-12T22:17:26.813Z,95791.41
2023-04-12T22:22:19.329Z,95789.91
2023-04-12T22:27:11.050Z,95807.56
2023-04-12T22:32:02.907Z,95816.25
2023-04-12T22:37:02.695Z,95812.78
2023-04-12T22:41:57.043Z,95814.28
2023-04-12T22:46:50.126Z,95832.28
2023-04-12T22:56:49.131Z,95857.47
2023-04-12T23:01:42.018Z,95846.81
2023-04-12T23:06:33.788Z,95845.34
2023-04-12T23:11:31.100Z,95861.69
2023-04-12T23:16:22.933Z,95855.66
2023-04-12T23:21:15.315Z,95864.41
2023-04-12T23:26:12.341Z,95858.16
2023-04-12T23:31:05.688Z,95862.78
2023-04-12T23:35:58.357Z,95862.25
2023-04-12T23:40:53.470Z,95855.44
2023-04-12T23:45:45.149Z,95860.75
2023-04-12T23:50:36.821Z,95868.16
2023-04-12T23:55:28.492Z,95870.88
